To NAV CANADA Home Page Login to a new session Search on AWWS site Disclaimer Vers la page française équivalente Tips FAQ What's new on the site To the Forecasts and Observations / NOTAM section To "File a Flight Plan" website Publications and other links Update of the User's profile FIC Telephone Numbers My Weather Data Folder Route Weather Data Regional Weather Data Local Weather Data To the Forecasts and Observations / NOTAM section
Request Generated 10/05/2022 at 18:47:36 UTC . Weather information available at that time is displayed.

METAR/TAF

KITCHENER/WATERLOO/ON    (show WxCam)

METAR CYKF 051800Z AUTO 26006KT 220V320 9SM CLR 23/09 A3005 RMK SLP180 DENSITY ALT 2100FT=
METAR CYKF 051700Z AUTO 21004KT 200V290 9SM CLR 21/09 A3007 RMK SLP187 DENSITY ALT 1900FT=
METAR CYKF 051600Z AUTO VRB04KT 9SM CLR 20/08 A3008 RMK SLP191 DENSITY ALT 1700FT=

TAF CYKF 051340Z 0514/0602 VRB03KT P6SM SKC
FM051800 26007KT P6SM FEW080
RMK FCST BASED ON AUTO OBS. NXT FCST BY 052000Z

LONDON/ON    

METAR CYXU 051800Z 26003KT 240V320 15SM SCT240 22/08 A3007 RMK CI3 SLP185 DENSITY ALT 1800FT=
METAR CYXU 051700Z VRB02KT 15SM FEW240 21/08 A3008 RMK CI2 SLP191 DENSITY ALT 1700FT=
METAR CYXU 051600Z VRB03KT 15SM FEW220 19/05 A3009 RMK CI1 SLP194 DENSITY ALT 1500FT=

TAF CYXU 051740Z 0518/0618 VRB03KT P6SM FEW140
BECMG 0518/0519 27007KT
FM060300 24005KT P6SM BKN110
BECMG 0615/0616 24010KT
RMK NXT FCST BY 060000Z=

HAMILTON/ON    

METAR CYHM 051800Z 25005KT 200V270 15SM FEW250 22/03 A3005 RMK CI1 SLP180 DENSITY ALT 1700FT=
METAR CYHM 051700Z 25006KT 200V290 15SM FEW250 21/05 A3006 RMK CI1 SLP184 DENSITY ALT 1500FT=
METAR CYHM 051600Z 22004KT 190V290 15SM FEW250 19/06 A3008 RMK CI1 SLP190 DENSITY ALT 1300FT=

TAF CYHM 051740Z 0518/0618 25007KT P6SM SKC
FM060500 24005KT P6SM BKN120
BECMG 0615/0617 23012KT
RMK NXT FCST BY 060000Z
Your time UTC time
Weather data provided by Environment Canada and NAV CANADA